sensor_id;sensor_type;location;lat;lon;timestamp;pressure;altitude;pressure_sealevel;temperature;humidity
54455;BME280;40364;52.270;10.546;2023-02-15T00:00:53;102064.00;;;8.56;71.24
54455;BME280;40364;52.270;10.546;2023-02-15T00:03:20;102071.25;;;8.23;74.71
54455;BME280;40364;52.270;10.546;2023-02-15T00:05:47;102068.88;;;8.06;74.54
54455;BME280;40364;52.270;10.546;2023-02-15T00:08:16;102067.69;;;8.17;74.92
54455;BME280;40364;52.270;10.546;2023-02-15T00:10:43;102064.44;;;8.05;74.71
54455;BME280;40364;52.270;10.546;2023-02-15T00:13:09;102052.69;;;8.18;74.06
54455;BME280;40364;52.270;10.546;2023-02-15T00:15:36;102060.16;;;8.23;74.63
54455;BME280;40364;52.270;10.546;2023-02-15T00:18:03;102054.31;;;8.24;74.44
54455;BME280;40364;52.270;10.546;2023-02-15T00:20:29;102054.38;;;8.14;74.67
54455;BME280;40364;52.270;10.546;2023-02-15T00:22:56;102059.34;;;8.17;75.24
54455;BME280;40364;52.270;10.546;2023-02-15T00:25:24;102054.34;;;8.19;75.44
54455;BME280;40364;52.270;10.546;2023-02-15T00:27:51;102053.84;;;8.12;74.20
54455;BME280;40364;52.270;10.546;2023-02-15T00:30:18;102061.06;;;8.13;74.62
54455;BME280;40364;52.270;10.546;2023-02-15T00:32:47;102054.34;;;8.19;75.09
54455;BME280;40364;52.270;10.546;2023-02-15T00:35:13;102062.50;;;8.05;74.88
54455;BME280;40364;52.270;10.546;2023-02-15T00:37:40;102053.53;;;6.86;82.28
54455;BME280;40364;52.270;10.546;2023-02-15T00:40:07;102045.41;;;6.20;91.32
54455;BME280;40364;52.270;10.546;2023-02-15T00:42:36;102039.41;;;7.37;81.33
54455;BME280;40364;52.270;10.546;2023-02-15T00:45:02;102043.28;;;7.41;77.05
54455;BME280;40364;52.270;10.546;2023-02-15T00:47:29;102034.31;;;7.59;76.19
54455;BME280;40364;52.270;10.546;2023-02-15T00:49:56;102035.88;;;7.70;75.13
54455;BME280;40364;52.270;10.546;2023-02-15T00:52:23;102028.94;;;7.68;76.51
54455;BME280;40364;52.270;10.546;2023-02-15T00:54:49;102014.63;;;7.56;76.46
54455;BME280;40364;52.270;10.546;2023-02-15T00:57:16;102019.44;;;7.79;75.27
54455;BME280;40364;52.270;10.546;2023-02-15T00:59:44;102026.69;;;7.75;77.73
54455;BME280;40364;52.270;10.546;2023-02-15T01:02:10;102016.34;;;7.47;81.59
54455;BME280;40364;52.270;10.546;2023-02-15T01:04:37;102005.66;;;7.30;81.96
54455;BME280;40364;52.270;10.546;2023-02-15T01:07:04;102001.63;;;7.07;85.05
54455;BME280;40364;52.270;10.546;2023-02-15T01:09:31;102004.66;;;7.10;86.18
54455;BME280;40364;52.270;10.546;2023-02-15T01:11:57;102007.53;;;6.95;90.08
54455;BME280;40364;52.270;10.546;2023-02-15T01:14:24;102007.81;;;6.89;90.63
54455;BME280;40364;52.270;10.546;2023-02-15T01:16:52;102005.41;;;6.72;94.12
54455;BME280;40364;52.270;10.546;2023-02-15T01:19:18;102005.31;;;6.92;92.67
54455;BME280;40364;52.270;10.546;2023-02-15T01:21:45;102003.06;;;6.99;90.88
54455;BME280;40364;52.270;10.546;2023-02-15T01:24:13;101997.34;;;7.30;90.69
54455;BME280;40364;52.270;10.546;2023-02-15T01:26:40;101999.72;;;7.47;87.42
54455;BME280;40364;52.270;10.546;2023-02-15T01:29:06;101994.66;;;7.15;90.40
54455;BME280;40364;52.270;10.546;2023-02-15T01:31:33;101994.88;;;7.28;90.24
54455;BME280;40364;52.270;10.546;2023-02-15T01:34:01;101996.91;;;7.52;87.06
54455;BME280;40364;52.270;10.546;2023-02-15T01:36:28;101988.88;;;7.50;86.67
54455;BME280;40364;52.270;10.546;2023-02-15T01:38:55;101991.25;;;7.33;87.40
54455;BME280;40364;52.270;10.546;2023-02-15T01:41:22;101984.25;;;7.35;88.77
54455;BME280;40364;52.270;10.546;2023-02-15T01:43:54;101987.16;;;7.20;90.67
54455;BME280;40364;52.270;10.546;2023-02-15T01:46:26;101981.34;;;7.17;90.97
54455;BME280;40364;52.270;10.546;2023-02-15T01:48:56;101982.38;;;7.31;89.99
54455;BME280;40364;52.270;10.546;2023-02-15T01:51:27;101987.59;;;6.93;94.40
54455;BME280;40364;52.270;10.546;2023-02-15T01:53:59;101978.72;;;6.91;96.20
54455;BME280;40364;52.270;10.546;2023-02-15T01:56:29;101976.91;;;7.21;93.02
54455;BME280;40364;52.270;10.546;2023-02-15T01:58:59;101977.97;;;7.25;91.48
54455;BME280;40364;52.270;10.546;2023-02-15T02:01:27;101976.56;;;6.83;96.89
54455;BME280;40364;52.270;10.546;2023-02-15T02:03:59;101971.66;;;6.70;98.47
54455;BME280;40364;52.270;10.546;2023-02-15T02:06:29;101960.22;;;6.82;97.34
54455;BME280;40364;52.270;10.546;2023-02-15T02:08:57;101963.84;;;6.77;97.35
54455;BME280;40364;52.270;10.546;2023-02-15T02:11:24;101959.53;;;6.51;96.79
54455;BME280;40364;52.270;10.546;2023-02-15T02:13:51;101961.06;;;6.77;96.58
54455;BME280;40364;52.270;10.546;2023-02-15T02:16:24;101948.91;;;7.22;91.25
54455;BME280;40364;52.270;10.546;2023-02-15T02:19:10;101947.38;;;7.40;89.74
54455;BME280;40364;52.270;10.546;2023-02-15T02:22:07;101943.13;;;7.82;85.17
54455;BME280;40364;52.270;10.546;2023-02-15T02:24:58;101952.25;;;7.87;83.95
54455;BME280;40364;52.270;10.546;2023-02-15T02:27:37;101948.06;;;7.61;84.83
54455;BME280;40364;52.270;10.546;2023-02-15T02:30:28;101953.59;;;7.61;84.71
54455;BME280;40364;52.270;10.546;2023-02-15T02:36:02;101942.72;;;7.64;82.97
54455;BME280;40364;52.270;10.546;2023-02-15T02:38:38;101946.53;;;7.73;82.51
54455;BME280;40364;52.270;10.546;2023-02-15T02:41:15;101940.97;;;7.73;81.84
54455;BME280;40364;52.270;10.546;2023-02-15T02:43:48;101930.50;;;7.65;81.43
54455;BME280;40364;52.270;10.546;2023-02-15T02:46:21;101920.41;;;7.51;82.25
54455;BME280;40364;52.270;10.546;2023-02-15T02:48:50;101923.38;;;7.59;81.50
54455;BME280;40364;52.270;10.546;2023-02-15T02:51:17;101910.72;;;7.48;81.06
54455;BME280;40364;52.270;10.546;2023-02-15T02:53:50;101925.03;;;7.26;83.81
54455;BME280;40364;52.270;10.546;2023-02-15T02:56:22;101917.00;;;7.59;82.17
54455;BME280;40364;52.270;10.546;2023-02-15T02:58:55;101910.28;;;7.65;80.55
54455;BME280;40364;52.270;10.546;2023-02-15T03:01:26;101924.59;;;7.77;79.52
54455;BME280;40364;52.270;10.546;2023-02-15T03:03:58;101919.56;;;7.79;79.15
54455;BME280;40364;52.270;10.546;2023-02-15T03:06:32;101929.84;;;7.78;78.62
54455;BME280;40364;52.270;10.546;2023-02-15T03:09:07;101918.09;;;7.63;78.93
54455;BME280;40364;52.270;10.546;2023-02-15T03:11:37;101908.66;;;7.30;80.48
54455;BME280;40364;52.270;10.546;2023-02-15T03:14:04;101910.38;;;7.21;81.57
54455;BME280;40364;52.270;10.546;2023-02-15T03:16:31;101913.16;;;7.21;82.59
54455;BME280;40364;52.270;10.546;2023-02-15T03:19:02;101907.41;;;7.46;80.17
54455;BME280;40364;52.270;10.546;2023-02-15T03:21:35;101905.41;;;7.52;78.13
54455;BME280;40364;52.270;10.546;2023-02-15T03:24:09;101900.53;;;7.67;77.05
54455;BME280;40364;52.270;10.546;2023-02-15T03:26:39;101899.59;;;7.53;77.32
54455;BME280;40364;52.270;10.546;2023-02-15T03:29:07;101898.53;;;7.44;75.86
54455;BME280;40364;52.270;10.546;2023-02-15T03:31:37;101898.03;;;7.37;76.20
54455;BME280;40364;52.270;10.546;2023-02-15T03:34:08;101899.91;;;7.47;75.53
54455;BME280;40364;52.270;10.546;2023-02-15T03:36:41;101890.25;;;7.39;74.44
54455;BME280;40364;52.270;10.546;2023-02-15T03:39:15;101882.66;;;7.21;74.92
54455;BME280;40364;52.270;10.546;2023-02-15T03:41:49;101880.09;;;6.95;76.16
54455;BME280;40364;52.270;10.546;2023-02-15T03:44:25;101879.25;;;6.95;75.83
54455;BME280;40364;52.270;10.546;2023-02-15T03:46:58;101870.63;;;7.01;75.45
54455;BME280;40364;52.270;10.546;2023-02-15T03:49:31;101871.59;;;7.21;73.75
54455;BME280;40364;52.270;10.546;2023-02-15T03:52:01;101875.97;;;7.27;73.11
54455;BME280;40364;52.270;10.546;2023-02-15T03:54:30;101864.31;;;6.96;75.82
54455;BME280;40364;52.270;10.546;2023-02-15T03:57:12;101866.16;;;7.05;75.03
54455;BME280;40364;52.270;10.546;2023-02-15T03:59:57;101865.00;;;7.12;74.16
54455;BME280;40364;52.270;10.546;2023-02-15T04:02:52;101860.66;;;7.00;75.65
54455;BME280;40364;52.270;10.546;2023-02-15T04:05:20;101864.41;;;6.75;76.09
54455;BME280;40364;52.270;10.546;2023-02-15T04:07:47;101864.94;;;6.38;76.61
54455;BME280;40364;52.270;10.546;2023-02-15T04:10:14;101860.63;;;6.66;74.63
54455;BME280;40364;52.270;10.546;2023-02-15T04:12:58;101863.03;;;6.78;72.90
54455;BME280;40364;52.270;10.546;2023-02-15T04:15:24;101852.44;;;6.85;72.23
54455;BME280;40364;52.270;10.546;2023-02-15T04:18:09;101859.88;;;6.95;71.85
54455;BME280;40364;52.270;10.546;2023-02-15T04:20:37;101862.75;;;6.74;72.47
54455;BME280;40364;52.270;10.546;2023-02-15T04:23:21;101862.19;;;6.78;72.10
54455;BME280;40364;52.270;10.546;2023-02-15T04:26:05;101861.31;;;6.87;70.92
54455;BME280;40364;52.270;10.546;2023-02-15T04:28:32;101863.84;;;6.79;70.78
54455;BME280;40364;52.270;10.546;2023-02-15T04:30:58;101871.84;;;6.85;70.80
54455;BME280;40364;52.270;10.546;2023-02-15T04:33:25;101868.00;;;6.81;69.87
54455;BME280;40364;52.270;10.546;2023-02-15T04:35:53;101858.34;;;6.73;70.32
54455;BME280;40364;52.270;10.546;2023-02-15T04:38:20;101864.50;;;6.11;73.56
54455;BME280;40364;52.270;10.546;2023-02-15T04:40:49;101866.31;;;6.41;72.49
54455;BME280;40364;52.270;10.546;2023-02-15T04:43:17;101859.34;;;6.43;71.50
54455;BME280;40364;52.270;10.546;2023-02-15T04:45:47;101851.69;;;6.30;71.72
54455;BME280;40364;52.270;10.546;2023-02-15T04:48:14;101846.72;;;6.27;72.00
54455;BME280;40364;52.270;10.546;2023-02-15T04:50:41;101853.47;;;5.96;73.65
54455;BME280;40364;52.270;10.546;2023-02-15T04:53:10;101848.03;;;5.30;78.55
54455;BME280;40364;52.270;10.546;2023-02-15T04:55:36;101841.97;;;4.97;81.36
54455;BME280;40364;52.270;10.546;2023-02-15T04:58:03;101844.69;;;5.58;76.77
54455;BME280;40364;52.270;10.546;2023-02-15T05:00:30;101833.91;;;5.67;76.12
54455;BME280;40364;52.270;10.546;2023-02-15T05:02:56;101831.75;;;5.23;77.59
54455;BME280;40364;52.270;10.546;2023-02-15T05:05:23;101831.41;;;5.60;77.12
54455;BME280;40364;52.270;10.546;2023-02-15T05:07:50;101818.63;;;5.85;75.41
54455;BME280;40364;52.270;10.546;2023-02-15T05:10:18;101819.91;;;6.18;75.24
54455;BME280;40364;52.270;10.546;2023-02-15T05:12:44;101816.28;;;6.22;73.96
54455;BME280;40364;52.270;10.546;2023-02-15T05:15:11;101821.94;;;6.51;72.28
54455;BME280;40364;52.270;10.546;2023-02-15T05:17:39;101822.88;;;6.36;71.82
54455;BME280;40364;52.270;10.546;2023-02-15T05:20:06;101821.47;;;6.39;73.17
54455;BME280;40364;52.270;10.546;2023-02-15T05:22:33;101822.88;;;6.36;72.93
54455;BME280;40364;52.270;10.546;2023-02-15T05:25:00;101826.41;;;6.42;72.36
54455;BME280;40364;52.270;10.546;2023-02-15T05:27:45;101824.41;;;6.58;71.72
54455;BME280;40364;52.270;10.546;2023-02-15T05:30:29;101821.50;;;6.34;71.70
54455;BME280;40364;52.270;10.546;2023-02-15T05:32:58;101820.66;;;6.38;71.24
54455;BME280;40364;52.270;10.546;2023-02-15T05:35:25;101809.16;;;6.11;72.99
54455;BME280;40364;52.270;10.546;2023-02-15T05:37:51;101809.69;;;6.13;73.28
54455;BME280;40364;52.270;10.546;2023-02-15T05:40:18;101814.88;;;5.30;75.77
54455;BME280;40364;52.270;10.546;2023-02-15T05:42:46;101807.09;;;5.52;75.94
54455;BME280;40364;52.270;10.546;2023-02-15T05:45:13;101815.66;;;5.51;75.97
54455;BME280;40364;52.270;10.546;2023-02-15T05:47:40;101809.38;;;5.20;76.67
54455;BME280;40364;52.270;10.546;2023-02-15T05:50:08;101813.16;;;5.59;75.47
54455;BME280;40364;52.270;10.546;2023-02-15T05:52:35;101805.94;;;5.79;74.36
54455;BME280;40364;52.270;10.546;2023-02-15T05:55:02;101811.75;;;5.77;74.58
54455;BME280;40364;52.270;10.546;2023-02-15T05:57:29;101809.72;;;6.08;73.42
54455;BME280;40364;52.270;10.546;2023-02-15T05:59:57;101806.63;;;6.20;72.34
54455;BME280;40364;52.270;10.546;2023-02-15T06:02:24;101822.13;;;6.16;71.84
54455;BME280;40364;52.270;10.546;2023-02-15T06:04:51;101816.31;;;6.17;72.31
54455;BME280;40364;52.270;10.546;2023-02-15T06:07:17;101816.84;;;6.24;71.57
54455;BME280;40364;52.270;10.546;2023-02-15T06:09:44;101823.00;;;6.11;71.31
54455;BME280;40364;52.270;10.546;2023-02-15T06:12:11;101830.31;;;5.56;75.27
54455;BME280;40364;52.270;10.546;2023-02-15T06:14:38;101816.69;;;5.85;74.05
54455;BME280;40364;52.270;10.546;2023-02-15T06:17:06;101825.78;;;6.06;72.58
54455;BME280;40364;52.270;10.546;2023-02-15T06:19:32;101825.31;;;5.73;72.50
54455;BME280;40364;52.270;10.546;2023-02-15T06:21:59;101820.06;;;5.77;73.47
54455;BME280;40364;52.270;10.546;2023-02-15T06:24:26;101823.59;;;5.83;72.39
54455;BME280;40364;52.270;10.546;2023-02-15T06:26:52;101813.63;;;5.97;71.33
54455;BME280;40364;52.270;10.546;2023-02-15T06:29:19;101819.13;;;6.07;71.48
54455;BME280;40364;52.270;10.546;2023-02-15T06:31:46;101824.06;;;6.15;70.44
54455;BME280;40364;52.270;10.546;2023-02-15T06:34:14;101824.13;;;6.05;71.71
54455;BME280;40364;52.270;10.546;2023-02-15T06:36:41;101814.94;;;6.15;70.99
54455;BME280;40364;52.270;10.546;2023-02-15T06:39:07;101811.63;;;6.13;71.06
54455;BME280;40364;52.270;10.546;2023-02-15T06:41:34;101818.63;;;5.90;71.21
54455;BME280;40364;52.270;10.546;2023-02-15T06:44:01;101820.53;;;6.04;71.14
54455;BME280;40364;52.270;10.546;2023-02-15T06:46:27;101820.16;;;6.21;70.55
54455;BME280;40364;52.270;10.546;2023-02-15T06:48:54;101823.03;;;6.06;71.39
54455;BME280;40364;52.270;10.546;2023-02-15T06:51:22;101810.28;;;6.05;71.69
54455;BME280;40364;52.270;10.546;2023-02-15T06:53:49;101812.25;;;5.99;71.19
54455;BME280;40364;52.270;10.546;2023-02-15T06:56:15;101815.31;;;5.93;71.81
54455;BME280;40364;52.270;10.546;2023-02-15T06:58:42;101815.84;;;5.85;71.85
54455;BME280;40364;52.270;10.546;2023-02-15T07:01:11;101817.53;;;5.91;71.95
54455;BME280;40364;52.270;10.546;2023-02-15T07:03:38;101814.56;;;4.45;82.18
54455;BME280;40364;52.270;10.546;2023-02-15T07:06:05;101801.53;;;4.15;88.71
54455;BME280;40364;52.270;10.546;2023-02-15T07:08:35;101802.69;;;4.34;88.35
54455;BME280;40364;52.270;10.546;2023-02-15T07:11:02;101804.22;;;5.88;75.12
54455;BME280;40364;52.270;10.546;2023-02-15T07:13:42;101794.44;;;5.36;81.56
54455;BME280;40364;52.270;10.546;2023-02-15T07:16:09;101804.69;;;5.00;79.30
54455;BME280;40364;52.270;10.546;2023-02-15T07:18:36;101802.13;;;4.37;87.19
54455;BME280;40364;52.270;10.546;2023-02-15T07:21:03;101792.75;;;4.38;88.06
54455;BME280;40364;52.270;10.546;2023-02-15T07:23:29;101786.50;;;6.04;74.57
54455;BME280;40364;52.270;10.546;2023-02-15T07:25:58;101779.66;;;6.40;72.72
54455;BME280;40364;52.270;10.546;2023-02-15T07:28:25;101787.88;;;6.56;71.87
54455;BME280;40364;52.270;10.546;2023-02-15T07:30:51;101781.72;;;6.64;71.26
54455;BME280;40364;52.270;10.546;2023-02-15T07:33:18;101773.31;;;6.74;70.71
54455;BME280;40364;52.270;10.546;2023-02-15T07:35:53;101781.00;;;6.82;71.06
54455;BME280;40364;52.270;10.546;2023-02-15T07:38:22;101774.03;;;6.90;69.83
54455;BME280;40364;52.270;10.546;2023-02-15T07:40:49;101769.03;;;6.58;71.17
54455;BME280;40364;52.270;10.546;2023-02-15T07:43:17;101781.28;;;6.86;70.67
54455;BME280;40364;52.270;10.546;2023-02-15T07:45:43;101775.97;;;6.89;70.29
54455;BME280;40364;52.270;10.546;2023-02-15T07:48:10;101776.47;;;6.96;70.21
54455;BME280;40364;52.270;10.546;2023-02-15T07:50:37;101766.75;;;6.99;70.57
54455;BME280;40364;52.270;10.546;2023-02-15T07:53:03;101763.75;;;6.95;71.15
54455;BME280;40364;52.270;10.546;2023-02-15T07:55:30;101752.53;;;7.05;70.81
54455;BME280;40364;52.270;10.546;2023-02-15T07:57:57;101762.13;;;7.18;70.57
54455;BME280;40364;52.270;10.546;2023-02-15T08:00:25;101769.09;;;7.16;72.10
54455;BME280;40364;52.270;10.546;2023-02-15T08:02:53;101763.69;;;7.29;72.19
54455;BME280;40364;52.270;10.546;2023-02-15T08:05:34;101759.22;;;7.04;74.92
54455;BME280;40364;52.270;10.546;2023-02-15T08:08:01;101769.13;;;7.39;72.78
54455;BME280;40364;52.270;10.546;2023-02-15T08:10:27;101771.69;;;7.60;72.10
54455;BME280;40364;52.270;10.546;2023-02-15T08:13:08;101775.16;;;7.70;71.61
54455;BME280;40364;52.270;10.546;2023-02-15T08:15:36;101777.03;;;7.75;72.66
54455;BME280;40364;52.270;10.546;2023-02-15T08:18:03;101769.06;;;7.44;73.79
54455;BME280;40364;52.270;10.546;2023-02-15T08:20:29;101768.13;;;7.54;75.83
54455;BME280;40364;52.270;10.546;2023-02-15T08:22:56;101768.19;;;7.49;76.80
54455;BME280;40364;52.270;10.546;2023-02-15T08:25:23;101758.28;;;7.43;77.16
54455;BME280;40364;52.270;10.546;2023-02-15T08:27:49;101760.44;;;6.15;88.19
54455;BME280;40364;52.270;10.546;2023-02-15T08:30:16;101761.69;;;7.35;83.50
54455;BME280;40364;52.270;10.546;2023-02-15T08:32:44;101756.75;;;7.80;78.80
54455;BME280;40364;52.270;10.546;2023-02-15T08:35:11;101747.63;;;7.98;76.84
54455;BME280;40364;52.270;10.546;2023-02-15T08:37:37;101762.72;;;8.10;77.38
54455;BME280;40364;52.270;10.546;2023-02-15T08:40:05;101764.69;;;8.29;77.06
54455;BME280;40364;52.270;10.546;2023-02-15T08:42:32;101767.81;;;8.03;79.59
54455;BME280;40364;52.270;10.546;2023-02-15T08:44:59;101760.75;;;8.35;78.24
54455;BME280;40364;52.270;10.546;2023-02-15T08:47:27;101763.66;;;8.62;76.56
54455;BME280;40364;52.270;10.546;2023-02-15T08:49:55;101751.09;;;8.27;80.99
54455;BME280;40364;52.270;10.546;2023-02-15T08:52:21;101764.47;;;8.63;80.90
54455;BME280;40364;52.270;10.546;2023-02-15T08:54:48;101757.44;;;8.52;82.52
54455;BME280;40364;52.270;10.546;2023-02-15T08:57:15;101750.66;;;8.76;80.60
54455;BME280;40364;52.270;10.546;2023-02-15T08:59:41;101755.41;;;9.08;78.65
54455;BME280;40364;52.270;10.546;2023-02-15T09:02:09;101762.22;;;9.16;79.43
54455;BME280;40364;52.270;10.546;2023-02-15T09:04:36;101746.63;;;8.50;81.82
54455;BME280;40364;52.270;10.546;2023-02-15T09:07:04;101752.91;;;9.07;80.66
54455;BME280;40364;52.270;10.546;2023-02-15T09:09:31;101740.44;;;8.72;79.97
54455;BME280;40364;52.270;10.546;2023-02-15T09:11:58;101736.50;;;8.92;78.78
54455;BME280;40364;52.270;10.546;2023-02-15T09:14:25;101736.72;;;8.44;84.08
54455;BME280;40364;52.270;10.546;2023-02-15T09:16:52;101732.88;;;8.21;86.81
54455;BME280;40364;52.270;10.546;2023-02-15T09:19:21;101733.09;;;8.81;83.99
54455;BME280;40364;52.270;10.546;2023-02-15T09:21:48;101734.97;;;8.99;81.18
54455;BME280;40364;52.270;10.546;2023-02-15T09:24:17;101735.56;;;8.83;81.41
54455;BME280;40364;52.270;10.546;2023-02-15T09:26:47;101731.59;;;8.70;80.71
54455;BME280;40364;52.270;10.546;2023-02-15T09:29:15;101724.72;;;8.49;81.32
54455;BME280;40364;52.270;10.546;2023-02-15T09:31:44;101721.56;;;8.36;84.11
54455;BME280;40364;52.270;10.546;2023-02-15T09:34:12;101729.25;;;8.77;80.59
54455;BME280;40364;52.270;10.546;2023-02-15T09:36:43;101723.28;;;9.16;79.46
54455;BME280;40364;52.270;10.546;2023-02-15T09:39:11;101723.25;;;9.02;78.09
54455;BME280;40364;52.270;10.546;2023-02-15T09:41:59;101722.13;;;8.71;78.80
54455;BME280;40364;52.270;10.546;2023-02-15T09:44:43;101723.06;;;8.48;80.97
54455;BME280;40364;52.270;10.546;2023-02-15T09:47:30;101730.59;;;8.80;80.46
54455;BME280;40364;52.270;10.546;2023-02-15T09:50:04;101725.78;;;8.85;79.59
54455;BME280;40364;52.270;10.546;2023-02-15T09:52:38;101721.97;;;9.68;74.68
54455;BME280;40364;52.270;10.546;2023-02-15T09:55:24;101716.16;;;10.06;71.47
54455;BME280;40364;52.270;10.546;2023-02-15T09:58:01;101713.53;;;9.73;73.71
54455;BME280;40364;52.270;10.546;2023-02-15T10:00:40;101718.13;;;10.05;72.11
54455;BME280;40364;52.270;10.546;2023-02-15T10:03:24;101715.34;;;10.41;70.86
54455;BME280;40364;52.270;10.546;2023-02-15T10:06:10;101713.34;;;10.33;71.20
54455;BME280;40364;52.270;10.546;2023-02-15T10:08:54;101710.66;;;10.28;70.57
54455;BME280;40364;52.270;10.546;2023-02-15T10:11:28;101708.94;;;10.05;72.53
54455;BME280;40364;52.270;10.546;2023-02-15T10:14:25;101717.00;;;9.93;73.76
54455;BME280;40364;52.270;10.546;2023-02-15T10:17:10;101703.97;;;10.52;70.93
54455;BME280;40364;52.270;10.546;2023-02-15T10:19:45;101699.97;;;10.22;68.85
54455;BME280;40364;52.270;10.546;2023-02-15T10:22:24;101697.56;;;9.65;72.98
54455;BME280;40364;52.270;10.546;2023-02-15T10:25:05;101697.53;;;10.65;68.70
54455;BME280;40364;52.270;10.546;2023-02-15T10:27:42;101696.38;;;10.43;68.37
54455;BME280;40364;52.270;10.546;2023-02-15T10:30:14;101701.50;;;10.95;66.16
54455;BME280;40364;52.270;10.546;2023-02-15T10:32:50;101692.19;;;10.99;64.82
54455;BME280;40364;52.270;10.546;2023-02-15T10:35:24;101692.78;;;11.58;62.67
54455;BME280;40364;52.270;10.546;2023-02-15T10:38:04;101689.03;;;11.32;62.71
54455;BME280;40364;52.270;10.546;2023-02-15T10:40:38;101680.63;;;11.71;62.55
54455;BME280;40364;52.270;10.546;2023-02-15T10:43:27;101687.63;;;12.69;59.12
54455;BME280;40364;52.270;10.546;2023-02-15T10:46:07;101679.28;;;12.17;58.85
54455;BME280;40364;52.270;10.546;2023-02-15T10:48:55;101686.19;;;12.37;58.34
54455;BME280;40364;52.270;10.546;2023-02-15T10:51:34;101686.16;;;12.54;58.17
54455;BME280;40364;52.270;10.546;2023-02-15T10:54:12;101679.41;;;12.64;57.24
54455;BME280;40364;52.270;10.546;2023-02-15T10:56:49;101676.88;;;13.05;55.88
54455;BME280;40364;52.270;10.546;2023-02-15T10:59:31;101669.75;;;14.34;52.77
54455;BME280;40364;52.270;10.546;2023-02-15T11:02:11;101675.66;;;15.20;50.67
54455;BME280;40364;52.270;10.546;2023-02-15T11:04:50;101668.97;;;14.67;50.84
54455;BME280;40364;52.270;10.546;2023-02-15T11:07:23;101668.19;;;13.45;52.24
54455;BME280;40364;52.270;10.546;2023-02-15T11:09:56;101671.38;;;13.35;52.70
54455;BME280;40364;52.270;10.546;2023-02-15T11:12:28;101676.94;;;13.73;51.61
54455;BME280;40364;52.270;10.546;2023-02-15T11:15:01;101677.44;;;14.16;51.51
54455;BME280;40364;52.270;10.546;2023-02-15T11:17:35;101672.19;;;13.94;51.21
54455;BME280;40364;52.270;10.546;2023-02-15T11:20:14;101676.69;;;14.70;48.81
54455;BME280;40364;52.270;10.546;2023-02-15T11:22:43;101667.53;;;15.75;47.44
54455;BME280;40364;52.270;10.546;2023-02-15T11:25:17;101674.88;;;15.68;46.21
54455;BME280;40364;52.270;10.546;2023-02-15T11:27:46;101673.44;;;16.50;44.51
54455;BME280;40364;52.270;10.546;2023-02-15T11:30:17;101667.13;;;16.13;44.80
54455;BME280;40364;52.270;10.546;2023-02-15T11:32:49;101669.41;;;14.90;46.98
54455;BME280;40364;52.270;10.546;2023-02-15T11:35:20;101667.50;;;15.27;46.77
54455;BME280;40364;52.270;10.546;2023-02-15T11:37:50;101657.81;;;15.85;44.46
54455;BME280;40364;52.270;10.546;2023-02-15T11:40:21;101660.88;;;14.98;45.81
54455;BME280;40364;52.270;10.546;2023-02-15T11:42:51;101653.66;;;15.95;44.35
54455;BME280;40364;52.270;10.546;2023-02-15T11:45:22;101650.09;;;16.22;43.15
54455;BME280;40364;52.270;10.546;2023-02-15T11:47:54;101654.28;;;15.64;43.96
54455;BME280;40364;52.270;10.546;2023-02-15T11:50:22;101646.31;;;14.72;44.21
54455;BME280;40364;52.270;10.546;2023-02-15T11:52:52;101654.84;;;15.33;43.68
54455;BME280;40364;52.270;10.546;2023-02-15T11:55:21;101656.63;;;15.74;42.42
54455;BME280;40364;52.270;10.546;2023-02-15T11:57:53;101653.06;;;16.01;41.58
54455;BME280;40364;52.270;10.546;2023-02-15T12:00:31;101650.03;;;16.46;40.63
54455;BME280;40364;52.270;10.546;2023-02-15T12:03:06;101654.19;;;16.65;39.79
54455;BME280;40364;52.270;10.546;2023-02-15T12:05:37;101640.78;;;16.90;39.05
54455;BME280;40364;52.270;10.546;2023-02-15T12:08:13;101640.81;;;15.45;42.22
54455;BME280;40364;52.270;10.546;2023-02-15T12:10:48;101631.78;;;16.28;41.36
54455;BME280;40364;52.270;10.546;2023-02-15T12:13:19;101634.19;;;17.13;39.98
54455;BME280;40364;52.270;10.546;2023-02-15T12:15:47;101632.28;;;17.17;40.08
54455;BME280;40364;52.270;10.546;2023-02-15T12:18:33;101634.56;;;17.12;39.34
54455;BME280;40364;52.270;10.546;2023-02-15T12:21:02;101637.50;;;18.75;37.20
54455;BME280;40364;52.270;10.546;2023-02-15T12:23:32;101641.97;;;17.83;37.48
54455;BME280;40364;52.270;10.546;2023-02-15T12:25:59;101629.69;;;16.25;40.17
54455;BME280;40364;52.270;10.546;2023-02-15T12:28:32;101624.91;;;15.86;41.12
54455;BME280;40364;52.270;10.546;2023-02-15T12:31:02;101641.22;;;14.98;42.25
54455;BME280;40364;52.270;10.546;2023-02-15T12:33:34;101637.47;;;16.16;41.61
54455;BME280;40364;52.270;10.546;2023-02-15T12:36:09;101640.59;;;15.74;41.33
54455;BME280;40364;52.270;10.546;2023-02-15T12:38:37;101642.34;;;16.87;40.20
54455;BME280;40364;52.270;10.546;2023-02-15T12:41:11;101637.34;;;16.96;39.92
54455;BME280;40364;52.270;10.546;2023-02-15T12:44:04;101638.47;;;17.70;38.93
54455;BME280;40364;52.270;10.546;2023-02-15T12:46:31;101627.66;;;17.25;40.16
54455;BME280;40364;52.270;10.546;2023-02-15T12:49:16;101629.25;;;17.58;39.70
54455;BME280;40364;52.270;10.546;2023-02-15T12:51:48;101616.06;;;15.99;42.50
54455;BME280;40364;52.270;10.546;2023-02-15T12:54:42;101616.19;;;16.03;42.87
54455;BME280;40364;52.270;10.546;2023-02-15T12:57:24;101608.03;;;17.13;41.19
54455;BME280;40364;52.270;10.546;2023-02-15T12:59:53;101616.06;;;16.67;41.71
54455;BME280;40364;52.270;10.546;2023-02-15T13:02:27;101607.84;;;16.90;41.33
54455;BME280;40364;52.270;10.546;2023-02-15T13:04:56;101612.66;;;16.90;41.72
54455;BME280;40364;52.270;10.546;2023-02-15T13:07:28;101611.44;;;15.79;43.12
54455;BME280;40364;52.270;10.546;2023-02-15T13:09:56;101600.03;;;16.00;43.26